createdAt,value
2022-12-12T00:04:00.198Z,96317.25
2022-12-12T00:06:31.101Z,96318.81
2022-12-12T00:10:03.649Z,96316.28
2022-12-12T00:16:45.498Z,96323.78
2022-12-12T00:20:05.443Z,96328.06
2022-12-12T00:22:49.375Z,96334.75
2022-12-12T00:25:38.746Z,96326.25
2022-12-12T00:28:06.513Z,96328.97
2022-12-12T00:31:15.556Z,96327.31
2022-12-12T00:33:50.286Z,96328.09
2022-12-12T00:36:52.997Z,96329.19
2022-12-12T00:42:22.922Z,96330.03
2022-12-12T00:44:49.666Z,96334.41
2022-12-12T00:47:18.627Z,96336.97
2022-12-12T00:50:09.645Z,96335.22
2022-12-12T00:52:37.491Z,96333.53
2022-12-12T00:55:05.561Z,96327.75
2022-12-12T00:57:35.945Z,96332.06
2022-12-12T01:00:06.439Z,96331.09
2022-12-12T01:02:34.543Z,96343.91
2022-12-12T01:05:03.190Z,96339.56
2022-12-12T01:07:30.158Z,96343.69
2022-12-12T01:09:57.088Z,96335.81
2022-12-12T01:12:23.920Z,96335.91
2022-12-12T01:15:20.280Z,96340.97
2022-12-12T01:19:27.838Z,96340.22
2022-12-12T01:21:54.545Z,96352.19
2022-12-12T01:24:21.558Z,96344.28
2022-12-12T01:26:48.469Z,96346.56
2022-12-12T01:29:32.576Z,96350.78
2022-12-12T01:32:09.249Z,96339.84
2022-12-12T01:38:50.317Z,96356.91
2022-12-12T01:41:55.677Z,96354.47
2022-12-12T01:45:15.072Z,96363.75
2022-12-12T01:47:51.019Z,96355.94
2022-12-12T01:50:18.282Z,96360.34
2022-12-12T01:53:14.988Z,96365.72
2022-12-12T01:55:43.288Z,96365.69
2022-12-12T02:11:47.293Z,96350.34
2022-12-12T02:12:33.636Z,96360.53
2022-12-12T02:15:04.188Z,96354.56
2022-12-12T02:18:21.121Z,96359.84
2022-12-12T02:21:52.770Z,96361.88
2022-12-12T02:25:25.842Z,96362.91
2022-12-12T02:35:41.983Z,96353.97
2022-12-12T02:38:50.476Z,96366.06
2022-12-12T02:42:16.694Z,96360.16
2022-12-12T02:48:49.140Z,96362.22
2022-12-12T02:51:57.310Z,96352.06
2022-12-12T02:58:32.469Z,96355.78
2022-12-12T03:02:01.510Z,96354.00
2022-12-12T04:11:59.221Z,96383.44
2022-12-12T04:22:49.533Z,96388.03
2022-12-12T04:25:32.891Z,96394.78
2022-12-12T04:28:05.725Z,96391.28
2022-12-12T04:30:35.233Z,96390.50
2022-12-12T04:33:13.099Z,96390.69
2022-12-12T04:35:45.504Z,96389.78
2022-12-12T04:38:42.620Z,96401.97
2022-12-12T04:41:11.989Z,96390.72
2022-12-12T04:43:43.459Z,96388.16
2022-12-12T04:46:18.156Z,96393.22
2022-12-12T04:48:55.358Z,96394.03
2022-12-12T04:51:33.769Z,96400.97
2022-12-12T04:54:29.420Z,96402.63
2022-12-12T04:57:00.943Z,96401.72
2022-12-12T04:59:28.974Z,96400.78
2022-12-12T05:02:02.597Z,96413.56
2022-12-12T05:04:32.350Z,96413.56
2022-12-12T05:07:10.903Z,96414.38
2022-12-12T05:09:38.495Z,96414.28
2022-12-12T05:12:05.623Z,96417.69
2022-12-12T05:14:33.018Z,96413.31
2022-12-12T05:17:07.857Z,96417.72
2022-12-12T05:23:57.688Z,96412.66
2022-12-12T05:26:29.283Z,96413.44
2022-12-12T05:30:12.848Z,96414.19
2022-12-12T05:43:40.080Z,96415.31
2022-12-12T05:46:56.468Z,96428.09
2022-12-12T05:49:50.269Z,96422.88
2022-12-12T05:52:22.810Z,96429.81
2022-12-12T05:55:04.089Z,96441.75
2022-12-12T05:57:30.763Z,96439.13
2022-12-12T06:00:25.492Z,96438.25
2022-12-12T06:02:54.781Z,96442.59
2022-12-12T06:06:04.095Z,96446.69
2022-12-12T06:08:35.061Z,96445.78
2022-12-12T06:23:16.494Z,96451.78
2022-12-12T06:26:04.524Z,96457.88
2022-12-12T06:28:34.642Z,96462.19
2022-12-12T06:31:04.511Z,96457.19
2022-12-12T06:33:36.525Z,96465.84
2022-12-12T06:36:09.292Z,96466.59
2022-12-12T06:38:36.333Z,96469.16
2022-12-12T06:41:12.610Z,96464.91
2022-12-12T06:44:37.247Z,96470.91
2022-12-12T06:47:03.910Z,96467.50
2022-12-12T06:49:30.436Z,96464.50
2022-12-12T07:31:16.523Z,96522.03
2022-12-12T07:42:03.808Z,96518.06
2022-12-12T07:48:45.328Z,96522.97
2022-12-12T07:58:49.262Z,96539.88
2022-12-12T08:02:56.309Z,96530.34
2022-12-12T08:05:39.713Z,96542.03
2022-12-12T08:35:58.194Z,96569.28
2022-12-12T08:50:32.797Z,96577.13
2022-12-12T08:54:04.537Z,96576.53
2022-12-12T09:00:53.147Z,96574.19
2022-12-12T09:03:23.535Z,96586.81
2022-12-12T09:05:54.116Z,96594.63
2022-12-12T09:08:20.625Z,96594.91
2022-12-12T09:10:50.133Z,96598.28
2022-12-12T09:13:17.109Z,96604.44
2022-12-12T09:15:43.694Z,96601.94
2022-12-12T09:18:10.167Z,96612.78
2022-12-12T09:20:36.660Z,96609.09
2022-12-12T09:23:03.238Z,96602.19
2022-12-12T09:25:29.734Z,96605.38
2022-12-12T09:27:56.584Z,96605.34
2022-12-12T09:30:23.283Z,96608.03
2022-12-12T09:32:49.856Z,96593.91
2022-12-12T09:35:16.651Z,96592.75
2022-12-12T09:37:43.183Z,96592.53
2022-12-12T09:40:18.010Z,96589.53
2022-12-12T09:42:51.389Z,96589.19
2022-12-12T09:45:19.616Z,96584.72
2022-12-12T09:47:49.543Z,96582.84
2022-12-12T09:50:26.382Z,96581.56
2022-12-12T09:52:56.662Z,96578.59
2022-12-12T09:55:26.831Z,96582.19
2022-12-12T09:58:02.578Z,96582.38
2022-12-12T10:00:35.350Z,96584.72
2022-12-12T10:03:19.232Z,96583.16
2022-12-12T10:09:28.581Z,96583.06
2022-12-12T10:11:56.733Z,96584.03
2022-12-12T10:14:43.745Z,96583.56
2022-12-12T10:17:37.697Z,96580.31
2022-12-12T10:20:24.069Z,96583.88
2022-12-12T10:23:07.134Z,96580.63
2022-12-12T10:25:51.219Z,96583.22
2022-12-12T10:28:19.947Z,96583.06
2022-12-12T10:31:02.215Z,96582.88
2022-12-12T10:33:47.838Z,96589.19
2022-12-12T10:36:26.368Z,96597.59
2022-12-12T10:39:14.611Z,96595.13
2022-12-12T10:41:48.812Z,96594.91
2022-12-12T10:44:15.281Z,96596.31
2022-12-12T10:46:58.043Z,96601.09
2022-12-12T10:49:25.015Z,96592.94
2022-12-12T10:51:52.516Z,96592.19
2022-12-12T10:54:26.199Z,96594.75
2022-12-12T10:57:07.781Z,96598.28
2022-12-12T10:59:49.548Z,96600.50
2022-12-12T11:02:38.266Z,96598.00
2022-12-12T11:05:28.026Z,96598.78
2022-12-12T11:08:04.605Z,96600.41
2022-12-12T11:10:36.816Z,96601.38
2022-12-12T11:13:09.404Z,96598.88
2022-12-12T11:15:44.160Z,96599.44
2022-12-12T11:18:16.121Z,96600.81
2022-12-12T11:21:07.910Z,96606.78
2022-12-12T11:23:36.500Z,96602.19
2022-12-12T11:26:11.074Z,96607.81
2022-12-12T11:28:38.806Z,96609.00
2022-12-12T11:31:09.061Z,96603.97
2022-12-12T11:33:44.808Z,96599.13
2022-12-12T11:36:16.905Z,96602.38
2022-12-12T11:38:50.559Z,96597.34
2022-12-12T11:41:17.730Z,96596.94
2022-12-12T11:43:44.174Z,96594.84
2022-12-12T11:46:13.506Z,96596.41
2022-12-12T11:48:47.368Z,96588.94
2022-12-12T11:51:29.826Z,96590.44
2022-12-12T11:53:56.389Z,96588.47
2022-12-12T11:56:49.120Z,96588.00
2022-12-12T11:59:35.412Z,96584.94
2022-12-12T12:02:27.230Z,96586.00
2022-12-12T12:05:12.028Z,96578.66
2022-12-12T12:08:27.201Z,96589.53
2022-12-12T12:11:27.932Z,96586.31
2022-12-12T12:14:05.543Z,96579.13
2022-12-12T12:16:59.772Z,96586.53
2022-12-12T12:19:47.375Z,96581.38
2022-12-12T12:22:25.941Z,96580.34
2022-12-12T12:25:05.555Z,96581.81
2022-12-12T12:27:43.003Z,96585.72
2022-12-12T12:30:25.572Z,96588.03
2022-12-12T12:33:18.631Z,96578.34
2022-12-12T12:35:48.111Z,96583.97
2022-12-12T12:38:21.898Z,96585.34
2022-12-12T12:41:17.163Z,96584.97
2022-12-12T12:44:17.613Z,96583.91
2022-12-12T12:46:49.267Z,96588.63
2022-12-12T12:49:23.477Z,96592.13
2022-12-12T12:51:59.136Z,96595.69
2022-12-12T12:54:33.884Z,96603.13
2022-12-12T12:57:20.748Z,96599.00
2022-12-12T12:59:51.803Z,96595.25
2022-12-12T13:02:42.862Z,96598.94
2022-12-12T13:05:14.942Z,96595.44
2022-12-12T13:08:17.667Z,96592.38
2022-12-12T13:10:50.486Z,96590.59
2022-12-12T13:13:44.981Z,96595.22
2022-12-12T13:16:15.630Z,96589.03
2022-12-12T13:18:46.187Z,96597.69
2022-12-12T13:22:00.665Z,96605.47
2022-12-12T13:24:43.139Z,96600.53
2022-12-12T13:27:17.342Z,96605.53
2022-12-12T13:29:50.735Z,96605.00
2022-12-12T13:32:45.079Z,96606.22
2022-12-12T13:35:17.117Z,96616.59
2022-12-12T13:37:54.891Z,96615.66
2022-12-12T13:40:26.937Z,96611.59
2022-12-12T13:42:57.352Z,96612.97
2022-12-12T13:45:40.474Z,96614.22
2022-12-12T13:48:31.017Z,96613.72
2022-12-12T13:51:53.445Z,96612.03
2022-12-12T13:54:19.905Z,96619.78
2022-12-12T13:56:58.389Z,96623.69
2022-12-12T13:59:27.721Z,96623.28
2022-12-12T14:02:00.042Z,96614.09
2022-12-12T14:04:31.665Z,96618.50
2022-12-12T14:07:12.241Z,96618.81
2022-12-12T14:09:48.300Z,96617.34
2022-12-12T14:12:29.221Z,96609.88
2022-12-12T14:15:06.074Z,96618.47
2022-12-12T14:17:42.252Z,96624.22
2022-12-12T14:20:37.253Z,96622.84
2022-12-12T14:23:08.404Z,96621.91
2022-12-12T14:28:32.574Z,96621.66
2022-12-12T14:30:59.062Z,96621.63
2022-12-12T14:33:49.085Z,96631.47
2022-12-12T14:36:40.854Z,96631.22
2022-12-12T14:39:10.321Z,96625.88
2022-12-12T14:41:39.836Z,96627.94
2022-12-12T14:44:36.616Z,96625.16
2022-12-12T14:47:07.392Z,96620.53
2022-12-12T14:49:33.899Z,96622.75
2022-12-12T14:52:00.593Z,96619.66
2022-12-12T14:54:27.425Z,96625.03
2022-12-12T14:56:59.095Z,96627.03
2022-12-12T14:59:29.797Z,96624.69
2022-12-12T15:02:05.359Z,96637.69
2022-12-12T15:04:35.200Z,96630.72
2022-12-12T15:07:07.025Z,96637.72
2022-12-12T15:09:38.831Z,96639.81
2022-12-12T15:12:08.264Z,96636.88
2022-12-12T15:14:34.801Z,96638.81
2022-12-12T15:17:07.154Z,96636.41
2022-12-12T15:19:41.264Z,96634.06
2022-12-12T15:22:22.042Z,96638.72
2022-12-12T15:24:48.783Z,96640.69
2022-12-12T15:27:41.571Z,96651.91
2022-12-12T15:30:43.611Z,96657.16
2022-12-12T15:33:22.447Z,96659.88
2022-12-12T15:36:01.822Z,96651.38
2022-12-12T15:38:29.695Z,96659.13
2022-12-12T15:40:59.730Z,96662.63
2022-12-12T15:43:28.026Z,96653.34
2022-12-12T15:45:55.012Z,96658.44
2022-12-12T15:48:22.719Z,96655.22
2022-12-12T15:50:59.286Z,96646.66
2022-12-12T15:53:31.444Z,96642.19
2022-12-12T15:56:04.827Z,96645.63
2022-12-12T15:58:35.182Z,96640.44
2022-12-12T16:01:03.354Z,96639.72
2022-12-12T16:03:29.947Z,96638.97
2022-12-12T16:06:14.026Z,96645.22
2022-12-12T16:08:54.321Z,96645.34
2022-12-12T16:11:38.844Z,96630.97
2022-12-12T16:14:23.754Z,96631.94
2022-12-12T16:16:53.243Z,96638.03
2022-12-12T16:19:38.401Z,96639.72
2022-12-12T16:22:13.620Z,96641.50
2022-12-12T16:24:55.545Z,96645.03
2022-12-12T16:27:22.537Z,96647.69
2022-12-12T16:29:49.085Z,96649.41
2022-12-12T16:32:19.005Z,96645.97
2022-12-12T16:34:45.396Z,96651.16
2022-12-12T16:37:14.852Z,96643.66
2022-12-12T16:39:42.053Z,96649.66
2022-12-12T16:42:16.544Z,96649.72
2022-12-12T16:44:43.723Z,96653.13
2022-12-12T16:47:14.521Z,96654.03
2022-12-12T16:49:41.285Z,96655.78
2022-12-12T16:52:09.769Z,96655.00
2022-12-12T16:54:36.230Z,96657.56
2022-12-12T16:57:02.749Z,96668.72
2022-12-12T16:59:29.240Z,96678.97
2022-12-12T17:01:55.767Z,96679.81
2022-12-12T17:04:23.926Z,96678.16
2022-12-12T17:06:50.904Z,96680.72
2022-12-12T17:09:17.702Z,96676.50
2022-12-12T17:11:44.238Z,96681.66
2022-12-12T17:14:19.757Z,96679.97
2022-12-12T17:16:46.335Z,96681.66
2022-12-12T17:19:12.867Z,96686.78
2022-12-12T17:21:39.390Z,96685.06
2022-12-12T17:24:07.023Z,96677.44
2022-12-12T17:26:35.146Z,96677.38
2022-12-12T17:29:02.550Z,96672.19
2022-12-12T17:31:29.167Z,96670.47
2022-12-12T17:33:55.737Z,96684.25
2022-12-12T17:36:22.291Z,96693.63
2022-12-12T17:38:49.109Z,96690.22
2022-12-12T17:41:15.754Z,96682.53
2022-12-12T17:43:42.313Z,96666.34
2022-12-12T17:46:15.021Z,96679.13
2022-12-12T17:48:43.661Z,96687.72
2022-12-12T17:51:12.665Z,96691.16
2022-12-12T17:53:39.877Z,96693.69
2022-12-12T17:56:14.995Z,96698.78
2022-12-12T17:58:44.157Z,96707.31
2022-12-12T18:01:12.517Z,96702.19
2022-12-12T18:03:39.239Z,96694.53
2022-12-12T18:06:06.114Z,96696.22
2022-12-12T18:08:32.937Z,96690.28
2022-12-12T18:10:59.571Z,96695.41
2022-12-12T18:13:26.741Z,96696.22
2022-12-12T18:15:55.495Z,96697.91
2022-12-12T18:18:22.268Z,96687.66
2022-12-12T18:20:49.098Z,96679.13
2022-12-12T18:23:15.814Z,96676.56
2022-12-12T18:25:42.389Z,96683.41
2022-12-12T18:28:12.249Z,96686.03
2022-12-12T18:30:40.231Z,96691.97
2022-12-12T18:33:10.197Z,96697.94
2022-12-12T18:35:36.873Z,96699.69
2022-12-12T18:38:03.473Z,96701.38
2022-12-12T18:40:29.939Z,96703.91
2022-12-12T18:42:56.462Z,96698.81
2022-12-12T18:45:24.062Z,96700.50
2022-12-12T18:47:50.686Z,96700.47
2022-12-12T18:50:17.250Z,96702.16
2022-12-12T18:52:43.800Z,96708.97
2022-12-12T18:55:10.340Z,96703.84
2022-12-12T18:57:36.830Z,96695.31
2022-12-12T19:00:06.878Z,96698.75
2022-12-12T19:02:38.363Z,96703.91
2022-12-12T19:05:05.966Z,96701.31
2022-12-12T19:07:32.934Z,96701.31
2022-12-12T19:09:59.455Z,96702.16
2022-12-12T19:12:25.992Z,96698.75
2022-12-12T19:15:15.638Z,96707.22
2022-12-12T19:17:39.009Z,96698.75
2022-12-12T19:20:06.244Z,96691.94
2022-12-12T19:22:45.384Z,96692.78
2022-12-12T19:25:12.484Z,96697.00
2022-12-12T19:27:39.008Z,96703.78
2022-12-12T19:30:06.247Z,96702.06
2022-12-12T19:32:32.918Z,96704.63
2022-12-12T19:34:59.741Z,96712.31
2022-12-12T19:37:26.302Z,96714.00
2022-12-12T19:39:52.970Z,96710.56
2022-12-12T19:42:20.372Z,96713.97
2022-12-12T19:44:46.936Z,96717.34
2022-12-12T19:47:13.423Z,96720.72
2022-12-12T19:49:39.957Z,96724.91
2022-12-12T19:52:12.220Z,96715.56
2022-12-12T19:54:40.544Z,96713.03
2022-12-12T19:57:07.043Z,96722.47
2022-12-12T19:59:33.615Z,96711.41
2022-12-12T20:02:01.004Z,96716.44
2022-12-12T20:04:30.137Z,96716.47
2022-12-12T20:06:56.728Z,96719.81
2022-12-12T20:09:28.525Z,96723.19
2022-12-12T20:11:57.652Z,96716.38
2022-12-12T20:14:27.548Z,96712.91
2022-12-12T20:16:55.254Z,96714.63
2022-12-12T20:19:23.126Z,96710.41
2022-12-12T20:22:00.726Z,96708.69
2022-12-12T20:24:28.890Z,96712.03
2022-12-12T20:26:56.025Z,96715.34
2022-12-12T20:29:23.506Z,96715.34
2022-12-12T20:31:50.459Z,96706.09
2022-12-12T20:34:19.195Z,96711.19
2022-12-12T20:36:46.591Z,96718.78
2022-12-12T20:39:22.306Z,96720.44
2022-12-12T20:41:50.406Z,96720.44
2022-12-12T20:44:18.102Z,96718.84
2022-12-12T20:46:46.580Z,96720.59
2022-12-12T20:49:16.985Z,96723.16
2022-12-12T20:51:59.751Z,96711.25
2022-12-12T20:54:28.775Z,96715.50
2022-12-12T20:56:56.910Z,96712.88
2022-12-12T20:59:24.899Z,96706.06
2022-12-12T21:01:51.938Z,96712.91
2022-12-12T21:04:18.646Z,96702.66
2022-12-12T21:06:48.376Z,96705.16
2022-12-12T21:09:22.593Z,96702.63
2022-12-12T21:11:52.061Z,96705.06
2022-12-12T21:14:18.607Z,96706.72
2022-12-12T21:16:45.123Z,96703.28
2022-12-12T21:19:13.643Z,96699.00
2022-12-12T21:21:42.143Z,96704.09
2022-12-12T21:24:09.950Z,96706.56
2022-12-12T21:26:36.404Z,96710.78
2022-12-12T21:29:04.886Z,96692.97
2022-12-12T21:31:34.663Z,96695.56
2022-12-12T21:34:01.459Z,96695.50
2022-12-12T21:36:29.104Z,96697.16
2022-12-12T21:38:57.221Z,96699.72
2022-12-12T21:41:23.946Z,96697.97
2022-12-12T21:43:51.359Z,96696.25
2022-12-12T21:46:24.027Z,96692.84
2022-12-12T21:49:09.911Z,96689.44
2022-12-12T21:51:36.633Z,96684.28
2022-12-12T21:54:04.877Z,96691.03
2022-12-12T21:56:31.950Z,96686.81
2022-12-12T21:58:59.344Z,96684.28
2022-12-12T22:01:26.444Z,96684.28
2022-12-12T22:03:53.929Z,96689.31
2022-12-12T22:06:23.305Z,96685.94
2022-12-12T22:08:50.769Z,96689.28
2022-12-12T22:11:39.794Z,96694.41
2022-12-12T22:14:06.726Z,96688.59
2022-12-12T22:16:33.887Z,96688.47
2022-12-12T22:19:05.821Z,96689.31
2022-12-12T22:21:33.849Z,96696.09
2022-12-12T22:24:01.065Z,96698.56
2022-12-12T22:26:29.035Z,96696.03
2022-12-12T22:28:58.863Z,96697.72
2022-12-12T22:31:27.011Z,96701.13
2022-12-12T22:33:56.209Z,96689.28
2022-12-12T22:36:34.194Z,96687.59
2022-12-12T22:39:01.207Z,96687.66
2022-12-12T22:41:29.440Z,96686.72
2022-12-12T22:44:01.263Z,96690.88
2022-12-12T22:46:28.904Z,96694.22
2022-12-12T22:48:59.097Z,96687.50
2022-12-12T22:51:28.323Z,96691.63
2022-12-12T22:53:56.116Z,96687.44
2022-12-12T22:56:23.411Z,96687.28
2022-12-12T22:58:49.987Z,96677.91
2022-12-12T23:01:19.129Z,96672.03
2022-12-12T23:03:46.593Z,96673.84
2022-12-12T23:06:21.854Z,96668.78
2022-12-12T23:08:54.143Z,96669.50
2022-12-12T23:11:22.645Z,96682.16
2022-12-12T23:13:49.393Z,96675.22
2022-12-12T23:16:21.463Z,96675.19
2022-12-12T23:18:48.758Z,96674.34
2022-12-12T23:21:18.298Z,96668.53
2022-12-12T23:23:46.047Z,96667.78
2022-12-12T23:26:15.759Z,96676.19
2022-12-12T23:28:43.015Z,96675.22
2022-12-12T23:31:16.075Z,96675.25
2022-12-12T23:33:42.662Z,96669.28
2022-12-12T23:36:10.841Z,96669.16
2022-12-12T23:38:37.988Z,96682.63
2022-12-12T23:41:06.549Z,96683.59
2022-12-12T23:43:33.175Z,96682.00
2022-12-12T23:46:07.329Z,96682.16
2022-12-12T23:48:34.971Z,96672.84
2022-12-12T23:51:01.534Z,96664.38
2022-12-12T23:53:31.698Z,96669.41
2022-12-12T23:56:03.622Z,96665.19
2022-12-12T23:58:30.337Z,96670.44
